createdAt,value
2017-09-10T00:00:22.349Z,0.00
2017-09-10T00:01:22.398Z,0.00
2017-09-10T00:02:22.521Z,0.00
2017-09-10T00:03:22.491Z,0.00
2017-09-10T00:04:22.541Z,0.00
2017-09-10T00:05:22.589Z,0.00
2017-09-10T00:06:22.636Z,0.00
2017-09-10T00:07:22.770Z,0.00
2017-09-10T00:08:22.731Z,0.00
2017-09-10T00:09:22.781Z,0.00
2017-09-10T00:10:22.827Z,0.00
2017-09-10T00:11:22.876Z,0.00
2017-09-10T00:12:23.008Z,0.00
2017-09-10T00:13:22.974Z,0.00
2017-09-10T00:14:23.021Z,0.00
2017-09-10T00:15:23.067Z,0.00
2017-09-10T00:16:23.116Z,0.00
2017-09-10T00:17:23.274Z,0.00
2017-09-10T00:18:23.276Z,0.00
2017-09-10T00:19:23.263Z,0.00
2017-09-10T00:20:23.307Z,0.00
2017-09-10T00:21:23.357Z,0.00
2017-09-10T00:22:23.405Z,0.00
2017-09-10T00:23:23.514Z,0.00
2017-09-10T00:24:23.498Z,0.00
2017-09-10T00:25:23.547Z,0.00
2017-09-10T00:26:23.599Z,0.00
2017-09-10T00:27:23.643Z,0.00
2017-09-10T00:28:23.764Z,0.00
2017-09-10T00:29:23.738Z,0.00
2017-09-10T00:30:23.787Z,0.00
2017-09-10T00:31:23.834Z,0.00
2017-09-10T00:32:23.891Z,0.00
2017-09-10T00:33:23.996Z,0.00
2017-09-10T00:34:23.978Z,0.00
2017-09-10T00:35:24.026Z,0.00
2017-09-10T00:36:24.074Z,0.00
2017-09-10T00:37:24.124Z,0.00
2017-09-10T00:38:24.251Z,0.00
2017-09-10T00:39:24.218Z,0.00
2017-09-10T00:40:24.265Z,0.00
2017-09-10T00:41:24.317Z,0.00
2017-09-10T00:42:24.361Z,0.00
2017-09-10T00:43:24.476Z,0.00
2017-09-10T00:44:24.456Z,0.00
2017-09-10T00:45:24.514Z,0.00
2017-09-10T00:46:24.553Z,0.00
2017-09-10T00:47:24.601Z,0.00
2017-09-10T00:48:24.732Z,0.00
2017-09-10T00:49:24.696Z,0.00
2017-09-10T00:50:24.746Z,0.00
2017-09-10T00:51:24.792Z,0.00
2017-09-10T00:52:24.842Z,0.00
2017-09-10T00:53:24.972Z,0.00
2017-09-10T00:54:24.937Z,0.00
2017-09-10T00:55:24.986Z,0.00
2017-09-10T00:56:25.035Z,0.00
2017-09-10T00:57:25.079Z,0.00
2017-09-10T00:58:25.213Z,0.00
2017-09-10T00:59:25.190Z,0.00
2017-09-10T01:00:25.226Z,0.00
2017-09-10T01:01:25.270Z,0.00
2017-09-10T01:02:25.318Z,0.00
2017-09-10T01:03:25.453Z,0.00
2017-09-10T01:04:25.415Z,0.00
2017-09-10T01:05:25.461Z,0.00
2017-09-10T01:06:25.513Z,0.00
2017-09-10T01:07:25.638Z,0.00
2017-09-10T01:08:25.675Z,0.00
2017-09-10T01:09:25.655Z,0.00
2017-09-10T01:10:25.702Z,0.00
2017-09-10T01:11:25.750Z,0.00
2017-09-10T01:12:25.797Z,0.00
2017-09-10T01:13:25.930Z,0.00
2017-09-10T01:14:25.890Z,0.00
2017-09-10T01:15:25.939Z,0.00
2017-09-10T01:16:25.995Z,0.00
2017-09-10T01:17:26.035Z,0.00
2017-09-10T01:18:26.148Z,0.00
2017-09-10T01:19:26.196Z,0.00
2017-09-10T01:20:26.179Z,0.00
2017-09-10T01:21:26.225Z,0.00
2017-09-10T01:22:26.272Z,0.00
2017-09-10T01:23:26.321Z,0.00
2017-09-10T01:24:26.434Z,0.00
2017-09-10T01:25:26.416Z,0.00
2017-09-10T01:26:26.466Z,0.00
2017-09-10T01:27:26.512Z,0.00
2017-09-10T01:28:26.561Z,0.00
2017-09-10T01:29:26.671Z,0.00
2017-09-10T01:30:26.655Z,0.00
2017-09-10T01:31:26.703Z,0.00
2017-09-10T01:32:26.753Z,0.00
2017-09-10T01:33:26.798Z,0.00
2017-09-10T01:34:26.911Z,0.00
2017-09-10T01:35:26.894Z,0.00
2017-09-10T01:36:26.938Z,0.00
2017-09-10T01:37:26.987Z,0.00
2017-09-10T01:38:27.036Z,0.00
2017-09-10T01:39:27.178Z,0.00
2017-09-10T01:40:27.132Z,0.00
2017-09-10T01:41:27.178Z,0.00
2017-09-10T01:42:27.227Z,0.00
2017-09-10T01:43:27.277Z,0.00
2017-09-10T01:44:27.388Z,0.00
2017-09-10T01:45:27.438Z,0.00
2017-09-10T01:46:27.416Z,0.00
2017-09-10T01:47:27.464Z,0.00
2017-09-10T01:48:27.515Z,0.00
2017-09-10T01:49:27.560Z,0.00
2017-09-10T01:50:28.302Z,0.00
2017-09-10T01:51:27.659Z,0.00
2017-09-10T01:52:27.705Z,0.00
2017-09-10T01:53:27.751Z,0.00
2017-09-10T01:54:27.798Z,0.00
2017-09-10T01:55:27.913Z,0.00
2017-09-10T01:56:27.894Z,0.00
2017-09-10T01:57:27.943Z,0.00
2017-09-10T01:58:27.989Z,0.00
2017-09-10T01:59:28.035Z,0.00
2017-09-10T02:00:28.150Z,0.00
2017-09-10T02:01:28.130Z,0.00
2017-09-10T02:02:28.185Z,0.00
2017-09-10T02:03:28.240Z,0.00
2017-09-10T02:04:28.275Z,0.00
2017-09-10T02:05:28.407Z,0.00
2017-09-10T02:06:28.371Z,0.00
2017-09-10T02:07:28.418Z,0.00
2017-09-10T02:08:28.469Z,0.00
2017-09-10T02:09:28.516Z,0.00
2017-09-10T02:10:28.634Z,0.00
2017-09-10T02:11:28.609Z,0.00
2017-09-10T02:12:28.697Z,0.00
2017-09-10T02:13:28.709Z,0.00
2017-09-10T02:14:28.756Z,0.00
2017-09-10T02:15:28.868Z,0.00
2017-09-10T02:16:28.849Z,0.00
2017-09-10T02:17:28.896Z,0.00
2017-09-10T02:18:28.942Z,0.00
2017-09-10T02:19:28.996Z,0.00
2017-09-10T02:20:29.122Z,0.00
2017-09-10T02:21:29.086Z,0.00
2017-09-10T02:22:29.133Z,0.00
2017-09-10T02:23:29.181Z,0.00
2017-09-10T02:24:29.231Z,0.00
2017-09-10T02:25:29.344Z,0.00
2017-09-10T02:26:29.390Z,0.00
2017-09-10T02:27:29.373Z,0.00
2017-09-10T02:28:29.422Z,0.00
2017-09-10T02:29:29.469Z,0.00
2017-09-10T02:30:29.523Z,0.00
2017-09-10T02:31:29.628Z,0.00
2017-09-10T02:32:29.617Z,0.00
2017-09-10T02:33:29.659Z,0.00
2017-09-10T02:34:29.706Z,0.00
2017-09-10T02:35:29.758Z,0.00
2017-09-10T02:36:29.869Z,0.00
2017-09-10T02:37:29.851Z,0.00
2017-09-10T02:38:29.898Z,0.00
2017-09-10T02:39:29.946Z,0.00
2017-09-10T02:40:29.995Z,0.00
2017-09-10T02:41:30.108Z,0.00
2017-09-10T02:42:30.091Z,0.00
2017-09-10T02:43:30.141Z,0.00
2017-09-10T02:44:30.186Z,0.00
2017-09-10T02:45:30.233Z,0.00
2017-09-10T02:46:30.346Z,0.00
2017-09-10T02:47:30.328Z,0.00
2017-09-10T02:48:30.381Z,0.00
2017-09-10T02:49:30.424Z,0.00
2017-09-10T02:50:30.473Z,0.00
2017-09-10T02:51:30.584Z,0.00
2017-09-10T02:52:30.569Z,0.00
2017-09-10T02:53:30.615Z,0.00
2017-09-10T02:54:30.666Z,0.00
2017-09-10T02:55:30.712Z,0.00
2017-09-10T02:56:30.827Z,0.00
2017-09-10T02:57:30.806Z,0.00
2017-09-10T02:58:30.856Z,0.00
2017-09-10T02:59:30.901Z,0.00
2017-09-10T03:00:30.951Z,0.00
2017-09-10T03:01:31.080Z,0.00
2017-09-10T03:02:31.044Z,0.00
2017-09-10T03:03:31.095Z,0.00
2017-09-10T03:04:31.144Z,0.00
2017-09-10T03:05:31.191Z,0.00
2017-09-10T03:06:31.301Z,0.00
2017-09-10T03:07:31.284Z,0.00
2017-09-10T03:08:31.330Z,0.00
2017-09-10T03:09:31.379Z,0.00
2017-09-10T03:10:31.426Z,0.00
2017-09-10T03:11:31.589Z,0.00
2017-09-10T03:12:31.521Z,0.00
2017-09-10T03:13:31.573Z,0.00
2017-09-10T03:14:31.617Z,0.00
2017-09-10T03:15:31.666Z,0.00
2017-09-10T03:16:31.776Z,0.00
2017-09-10T03:17:31.825Z,0.00
2017-09-10T03:18:31.806Z,0.00
2017-09-10T03:19:31.857Z,0.00
2017-09-10T03:20:31.904Z,0.00
2017-09-10T03:21:31.955Z,0.00
2017-09-10T03:22:32.063Z,0.00
2017-09-10T03:23:32.045Z,0.00
2017-09-10T03:24:32.092Z,0.00
2017-09-10T03:25:32.169Z,0.00
2017-09-10T03:26:32.187Z,0.00
2017-09-10T03:27:32.297Z,0.00
2017-09-10T03:28:32.289Z,0.00
2017-09-10T03:29:32.329Z,0.00
2017-09-10T03:30:32.376Z,0.00
2017-09-10T03:31:32.423Z,0.00
2017-09-10T03:32:32.538Z,0.00
2017-09-10T03:33:32.520Z,0.00
2017-09-10T03:34:32.567Z,0.00
2017-09-10T03:35:32.614Z,0.00
2017-09-10T03:36:32.664Z,0.00
2017-09-10T03:37:32.794Z,0.00
2017-09-10T03:38:32.758Z,0.00
2017-09-10T03:39:32.805Z,0.00
2017-09-10T03:40:32.854Z,0.00
2017-09-10T03:41:32.897Z,0.00
2017-09-10T03:42:33.010Z,0.00
2017-09-10T03:43:33.059Z,0.00
2017-09-10T03:44:33.039Z,0.00
2017-09-10T03:45:33.089Z,0.00
2017-09-10T03:46:33.135Z,0.00
2017-09-10T03:47:33.181Z,0.00
2017-09-10T03:48:33.294Z,0.00
2017-09-10T03:49:33.279Z,0.00
2017-09-10T03:50:33.326Z,0.00
2017-09-10T03:51:33.373Z,0.00
2017-09-10T03:52:33.421Z,0.00
2017-09-10T03:53:33.534Z,0.00
2017-09-10T03:54:33.517Z,0.00
2017-09-10T03:55:33.563Z,0.00
2017-09-10T03:56:33.610Z,0.00
2017-09-10T03:57:33.664Z,0.00
2017-09-10T03:58:33.769Z,0.00
2017-09-10T03:59:33.752Z,0.00
2017-09-10T04:00:33.803Z,0.00
2017-09-10T04:01:33.848Z,0.00
2017-09-10T04:02:33.898Z,0.00
2017-09-10T04:03:34.028Z,0.00
2017-09-10T04:04:33.989Z,0.00
2017-09-10T04:05:34.033Z,0.00
2017-09-10T04:06:34.083Z,0.00
2017-09-10T04:07:34.131Z,0.00
2017-09-10T04:08:34.250Z,0.00
2017-09-10T04:09:34.293Z,0.00
2017-09-10T04:10:34.274Z,0.00
2017-09-10T04:11:34.323Z,0.00
2017-09-10T04:12:34.369Z,0.00
2017-09-10T04:13:34.415Z,0.00
2017-09-10T04:14:34.528Z,0.00
2017-09-10T04:15:34.511Z,0.00
2017-09-10T04:16:34.557Z,0.00
2017-09-10T04:17:34.606Z,0.00
2017-09-10T04:18:34.655Z,0.00
2017-09-10T04:19:34.768Z,0.00
2017-09-10T04:20:34.748Z,0.00
2017-09-10T04:21:34.796Z,0.00
2017-09-10T04:22:34.844Z,0.00
2017-09-10T04:23:34.891Z,0.00
2017-09-10T04:24:35.000Z,0.00
2017-09-10T04:25:34.988Z,0.00
2017-09-10T04:26:35.032Z,0.00
2017-09-10T04:27:35.082Z,0.00
2017-09-10T04:28:35.130Z,0.00
2017-09-10T04:29:35.239Z,0.00
2017-09-10T04:30:35.221Z,0.00
2017-09-10T04:31:35.268Z,0.00
2017-09-10T04:32:35.325Z,0.00
2017-09-10T04:33:35.366Z,0.00
2017-09-10T04:34:35.481Z,0.00
2017-09-10T04:35:35.458Z,0.00
2017-09-10T04:36:35.505Z,0.00
2017-09-10T04:37:35.554Z,0.00
2017-09-10T04:38:35.601Z,0.00
2017-09-10T04:39:35.741Z,0.00
2017-09-10T04:40:35.695Z,0.00
2017-09-10T04:41:35.742Z,0.00
2017-09-10T04:42:35.789Z,0.00
2017-09-10T04:43:35.836Z,0.00
2017-09-10T04:44:35.966Z,0.00
2017-09-10T04:45:35.931Z,0.00
2017-09-10T04:46:35.979Z,0.00
2017-09-10T04:47:36.027Z,0.00
2017-09-10T04:48:36.081Z,0.00
2017-09-10T04:49:36.204Z,0.00
2017-09-10T04:50:36.168Z,0.00
2017-09-10T04:51:36.214Z,0.00
2017-09-10T04:52:37.168Z,0.00
2017-09-10T04:53:36.348Z,0.00
2017-09-10T04:54:36.426Z,0.00
2017-09-10T04:55:36.469Z,0.00
2017-09-10T04:56:36.453Z,0.00
2017-09-10T04:57:36.499Z,0.00
2017-09-10T04:58:36.545Z,0.00
2017-09-10T04:59:36.594Z,0.00
2017-09-10T05:00:36.705Z,0.00
2017-09-10T05:01:36.691Z,0.00
2017-09-10T05:02:36.735Z,0.00
2017-09-10T05:03:36.783Z,0.00
2017-09-10T05:04:36.835Z,0.00
2017-09-10T05:05:36.939Z,0.00
2017-09-10T05:06:36.922Z,5.63
2017-09-10T05:07:36.972Z,5.63
2017-09-10T05:08:37.017Z,5.63
2017-09-10T05:09:37.066Z,5.63
2017-09-10T05:10:37.182Z,5.63
2017-09-10T05:11:37.165Z,5.63
2017-09-10T05:12:37.206Z,5.63
2017-09-10T05:13:37.255Z,5.63
2017-09-10T05:14:37.302Z,5.63
2017-09-10T05:15:37.411Z,5.63
2017-09-10T05:16:37.397Z,5.63
2017-09-10T05:17:37.446Z,5.63
2017-09-10T05:18:37.493Z,11.25
2017-09-10T05:19:37.538Z,11.25
2017-09-10T05:20:37.670Z,11.25
2017-09-10T05:21:37.635Z,11.25
2017-09-10T05:22:37.679Z,11.25
2017-09-10T05:23:37.734Z,11.25
2017-09-10T05:24:38.199Z,11.25
2017-09-10T05:25:37.895Z,11.25
2017-09-10T05:26:37.941Z,11.25
2017-09-10T05:27:37.916Z,16.88
2017-09-10T05:28:37.963Z,16.88
2017-09-10T05:29:38.017Z,16.88
2017-09-10T05:30:38.055Z,16.88
2017-09-10T05:31:38.168Z,16.88
2017-09-10T05:32:38.151Z,16.88
2017-09-10T05:33:38.200Z,16.88
2017-09-10T05:34:38.249Z,22.50
2017-09-10T05:35:38.293Z,22.50
2017-09-10T05:36:38.425Z,22.50
2017-09-10T05:37:38.388Z,28.13
2017-09-10T05:38:38.435Z,28.13
2017-09-10T05:39:38.484Z,28.13
2017-09-10T05:40:38.531Z,28.13
2017-09-10T05:41:38.662Z,33.75
2017-09-10T05:42:38.626Z,33.75
2017-09-10T05:43:38.675Z,33.75
2017-09-10T05:44:38.719Z,33.75
2017-09-10T05:45:38.777Z,33.75
2017-09-10T05:46:38.897Z,33.75
2017-09-10T05:47:38.861Z,33.75
2017-09-10T05:48:38.908Z,33.75
2017-09-10T05:49:38.957Z,33.75
2017-09-10T05:50:39.003Z,33.75
2017-09-10T05:51:39.131Z,39.38
2017-09-10T05:52:39.096Z,39.38
2017-09-10T05:53:39.145Z,45.00
2017-09-10T05:54:39.192Z,45.00
2017-09-10T05:55:39.238Z,45.00
2017-09-10T05:56:39.376Z,45.00
2017-09-10T05:57:39.335Z,45.00
2017-09-10T05:58:39.380Z,45.00
2017-09-10T05:59:39.426Z,50.63
2017-09-10T06:00:39.478Z,50.63
2017-09-10T06:01:39.604Z,50.63
2017-09-10T06:02:39.565Z,56.25
2017-09-10T06:03:39.617Z,56.25
2017-09-10T06:04:39.663Z,56.25
2017-09-10T06:05:39.710Z,56.25
2017-09-10T06:06:39.827Z,56.25
2017-09-10T06:07:39.867Z,56.25
2017-09-10T06:08:39.849Z,61.88
2017-09-10T06:09:39.899Z,61.88
2017-09-10T06:10:40.278Z,61.88
2017-09-10T06:11:39.997Z,61.88
2017-09-10T06:12:40.104Z,67.50
2017-09-10T06:13:40.087Z,67.50
2017-09-10T06:14:40.136Z,73.13
2017-09-10T06:15:40.179Z,73.13
2017-09-10T06:16:40.230Z,78.75
2017-09-10T06:17:40.341Z,84.38
2017-09-10T06:18:40.322Z,90.00
2017-09-10T06:19:40.368Z,90.00
2017-09-10T06:20:40.420Z,90.00
2017-09-10T06:21:40.464Z,90.00
2017-09-10T06:22:40.574Z,90.00
2017-09-10T06:23:40.558Z,90.00
2017-09-10T06:24:40.603Z,90.00
2017-09-10T06:25:40.655Z,84.38
2017-09-10T06:26:40.702Z,84.38
2017-09-10T06:27:40.828Z,84.38
2017-09-10T06:28:40.792Z,90.00
2017-09-10T06:29:40.841Z,90.00
2017-09-10T06:30:40.892Z,95.63
2017-09-10T06:31:40.934Z,95.63
2017-09-10T06:32:41.065Z,95.63
2017-09-10T06:33:41.029Z,101.25
2017-09-10T06:34:41.078Z,101.25
2017-09-10T06:35:41.122Z,106.88
2017-09-10T06:36:41.168Z,106.88
2017-09-10T06:37:41.289Z,112.50
2017-09-10T06:38:41.333Z,112.50
2017-09-10T06:39:41.313Z,118.13
2017-09-10T06:40:41.360Z,118.13
2017-09-10T06:41:41.409Z,123.75
2017-09-10T06:42:41.458Z,129.38
2017-09-10T06:43:41.568Z,129.38
2017-09-10T06:44:41.543Z,135.00
2017-09-10T06:45:41.594Z,135.00
2017-09-10T06:46:41.642Z,140.63
2017-09-10T06:47:41.690Z,140.63
2017-09-10T06:48:41.800Z,140.63
2017-09-10T06:49:41.783Z,140.63
2017-09-10T06:50:41.832Z,140.63
2017-09-10T06:51:41.875Z,140.63
2017-09-10T06:52:41.926Z,140.63
2017-09-10T06:53:42.255Z,140.63
2017-09-10T06:54:42.018Z,146.25
2017-09-10T06:55:42.064Z,146.25
2017-09-10T06:56:42.114Z,151.88
2017-09-10T06:57:42.160Z,157.50
2017-09-10T06:58:42.270Z,157.50
2017-09-10T06:59:42.253Z,163.13
2017-09-10T07:00:42.348Z,163.13
2017-09-10T07:01:42.349Z,163.13
2017-09-10T07:02:42.394Z,163.13
2017-09-10T07:03:42.529Z,168.75
2017-09-10T07:04:42.490Z,163.13
2017-09-10T07:05:42.545Z,168.75
2017-09-10T07:06:42.586Z,168.75
2017-09-10T07:07:42.630Z,174.38
2017-09-10T07:08:42.761Z,174.38
2017-09-10T07:09:42.725Z,180.00
2017-09-10T07:10:42.775Z,185.63
2017-09-10T07:11:42.818Z,196.88
2017-09-10T07:12:42.871Z,208.13
2017-09-10T07:13:42.997Z,213.75
2017-09-10T07:14:42.964Z,225.00
2017-09-10T07:15:43.006Z,230.63
2017-09-10T07:16:43.069Z,236.25
2017-09-10T07:17:43.109Z,241.88
2017-09-10T07:18:43.212Z,241.88
2017-09-10T07:19:43.195Z,241.88
2017-09-10T07:20:43.244Z,247.50
2017-09-10T07:21:43.291Z,247.50
2017-09-10T07:22:43.337Z,247.50
2017-09-10T07:23:43.474Z,247.50
2017-09-10T07:24:43.437Z,247.50
2017-09-10T07:25:43.480Z,253.13
2017-09-10T07:26:43.525Z,253.13
2017-09-10T07:27:43.576Z,253.13
2017-09-10T07:28:43.700Z,253.13
2017-09-10T07:29:43.670Z,253.13
2017-09-10T07:30:43.719Z,247.50
2017-09-10T07:31:43.763Z,253.13
2017-09-10T07:32:43.809Z,253.13
2017-09-10T07:33:43.922Z,258.75
2017-09-10T07:34:43.972Z,264.38
2017-09-10T07:35:43.951Z,275.63
2017-09-10T07:36:43.998Z,281.25
2017-09-10T07:37:44.047Z,281.25
2017-09-10T07:38:44.095Z,281.25
2017-09-10T07:39:44.203Z,286.88
2017-09-10T07:40:44.189Z,286.88
2017-09-10T07:41:44.238Z,286.88
2017-09-10T07:42:44.282Z,292.50
2017-09-10T07:43:44.328Z,303.75
2017-09-10T07:44:44.441Z,303.75
2017-09-10T07:45:44.426Z,303.75
2017-09-10T07:46:44.508Z,309.38
2017-09-10T07:47:44.519Z,315.00
2017-09-10T07:48:44.568Z,320.63
2017-09-10T07:49:44.703Z,326.25
2017-09-10T07:50:44.661Z,331.88
2017-09-10T07:51:44.711Z,331.88
2017-09-10T07:52:44.757Z,337.50
2017-09-10T07:53:44.803Z,337.50
2017-09-10T07:54:44.924Z,337.50
2017-09-10T07:55:44.899Z,331.88
2017-09-10T07:56:44.948Z,326.25
2017-09-10T07:57:44.994Z,326.25
2017-09-10T07:58:45.038Z,326.25
2017-09-10T07:59:45.169Z,326.25
2017-09-10T08:00:45.139Z,331.88
2017-09-10T08:01:45.183Z,331.88
2017-09-10T08:02:45.232Z,326.25
2017-09-10T08:03:45.276Z,326.25
2017-09-10T08:04:45.399Z,320.63
2017-09-10T08:05:45.438Z,320.63
2017-09-10T08:06:45.420Z,320.63
2017-09-10T08:07:45.466Z,326.25
2017-09-10T08:08:45.516Z,331.88
2017-09-10T08:09:45.565Z,343.13
2017-09-10T08:10:45.672Z,348.75
2017-09-10T08:11:45.655Z,360.00
2017-09-10T08:12:45.704Z,365.63
2017-09-10T08:13:45.754Z,365.63
2017-09-10T08:14:45.802Z,371.25
2017-09-10T08:15:45.912Z,376.88
2017-09-10T08:16:45.892Z,382.50
2017-09-10T08:17:45.941Z,382.50
2017-09-10T08:18:45.989Z,388.13
2017-09-10T08:19:46.038Z,399.38
2017-09-10T08:20:46.150Z,405.00
2017-09-10T08:21:46.133Z,410.63
2017-09-10T08:22:46.182Z,421.88
2017-09-10T08:23:46.226Z,427.50
2017-09-10T08:24:46.275Z,438.75
2017-09-10T08:25:46.388Z,444.38
2017-09-10T08:26:46.370Z,450.00
2017-09-10T08:27:46.417Z,450.00
2017-09-10T08:28:46.463Z,450.00
2017-09-10T08:29:46.513Z,450.00
2017-09-10T08:30:46.631Z,450.00
2017-09-10T08:31:47.183Z,455.63
2017-09-10T08:32:46.657Z,466.88
2017-09-10T08:33:46.704Z,472.50
2017-09-10T08:34:46.752Z,472.50
2017-09-10T08:35:46.863Z,466.88
2017-09-10T08:36:46.846Z,461.25
2017-09-10T08:37:46.892Z,455.63
2017-09-10T08:38:46.941Z,461.25
2017-09-10T08:39:46.995Z,478.13
2017-09-10T08:40:47.119Z,495.00
2017-09-10T08:41:47.083Z,500.63
2017-09-10T08:42:47.132Z,528.75
2017-09-10T08:43:47.181Z,540.00
2017-09-10T08:44:47.227Z,556.88
2017-09-10T08:45:47.356Z,573.75
2017-09-10T08:46:47.320Z,585.00
2017-09-10T08:47:47.372Z,596.25
2017-09-10T08:48:47.418Z,596.25
2017-09-10T08:49:47.466Z,596.25
2017-09-10T08:50:47.596Z,596.25
2017-09-10T08:51:47.558Z,601.88
2017-09-10T08:52:47.607Z,596.25
2017-09-10T08:53:47.655Z,590.63
2017-09-10T08:54:47.705Z,585.00
2017-09-10T08:55:47.815Z,579.38
2017-09-10T08:56:47.862Z,556.88
2017-09-10T08:57:47.844Z,545.63
2017-09-10T08:58:47.896Z,545.63
2017-09-10T08:59:47.942Z,545.63
2017-09-10T09:00:47.989Z,551.25
2017-09-10T09:01:48.100Z,556.88
2017-09-10T09:02:48.085Z,568.13
2017-09-10T09:03:48.131Z,579.38
2017-09-10T09:04:48.181Z,590.63
2017-09-10T09:05:48.227Z,607.50
2017-09-10T09:06:48.339Z,624.38
2017-09-10T09:07:48.323Z,641.25
2017-09-10T09:08:48.372Z,663.75
2017-09-10T09:09:48.422Z,669.38
2017-09-10T09:10:48.463Z,669.38
2017-09-10T09:11:48.577Z,658.13
2017-09-10T09:12:48.562Z,641.25
2017-09-10T09:13:48.609Z,635.63
2017-09-10T09:14:48.658Z,618.75
2017-09-10T09:15:48.704Z,601.88
2017-09-10T09:16:48.817Z,585.00
2017-09-10T09:17:48.811Z,573.75
2017-09-10T09:18:48.848Z,562.50
2017-09-10T09:19:48.899Z,556.88
2017-09-10T09:20:48.944Z,556.88
2017-09-10T09:21:49.057Z,551.25
2017-09-10T09:22:49.040Z,545.63
2017-09-10T09:23:49.089Z,551.25
2017-09-10T09:24:49.135Z,545.63
2017-09-10T09:25:49.196Z,540.00
2017-09-10T09:26:49.305Z,528.75
2017-09-10T09:27:49.280Z,528.75
2017-09-10T09:28:49.326Z,528.75
2017-09-10T09:29:49.376Z,517.50
2017-09-10T09:30:49.422Z,506.25
2017-09-10T09:31:49.556Z,506.25
2017-09-10T09:32:49.521Z,500.63
2017-09-10T09:33:49.569Z,500.63
2017-09-10T09:34:49.616Z,506.25
2017-09-10T09:35:49.664Z,517.50
2017-09-10T09:36:49.796Z,523.13
2017-09-10T09:37:49.761Z,528.75
2017-09-10T09:38:49.810Z,534.38
2017-09-10T09:39:49.856Z,540.00
2017-09-10T09:40:49.905Z,551.25
2017-09-10T09:41:50.015Z,556.88
2017-09-10T09:42:50.065Z,562.50
2017-09-10T09:43:50.048Z,562.50
2017-09-10T09:44:50.096Z,562.50
2017-09-10T09:45:50.148Z,568.13
2017-09-10T09:46:50.194Z,556.88
2017-09-10T09:47:50.315Z,556.88
2017-09-10T09:48:50.287Z,556.88
2017-09-10T09:49:50.337Z,556.88
2017-09-10T09:50:50.382Z,562.50
2017-09-10T09:51:50.432Z,562.50
2017-09-10T09:52:50.545Z,568.13
2017-09-10T09:53:50.528Z,562.50
2017-09-10T09:54:50.579Z,556.88
2017-09-10T09:55:50.622Z,556.88
2017-09-10T09:56:50.672Z,556.88
2017-09-10T09:57:50.808Z,562.50
2017-09-10T09:58:50.767Z,568.13
2017-09-10T09:59:50.817Z,579.38
2017-09-10T10:00:50.865Z,596.25
2017-09-10T10:01:50.913Z,613.13
2017-09-10T10:02:51.025Z,624.38
2017-09-10T10:03:51.077Z,635.63
2017-09-10T10:04:51.060Z,646.88
2017-09-10T10:05:51.106Z,658.13
2017-09-10T10:06:51.152Z,675.00
2017-09-10T10:07:51.202Z,691.88
2017-09-10T10:08:51.437Z,714.38
2017-09-10T10:09:51.297Z,736.88
2017-09-10T10:10:51.346Z,753.75
2017-09-10T10:11:51.414Z,770.63
2017-09-10T10:12:51.441Z,781.88
2017-09-10T10:13:51.554Z,793.13
2017-09-10T10:14:51.540Z,804.38
2017-09-10T10:15:51.589Z,815.63
2017-09-10T10:16:51.637Z,843.75
2017-09-10T10:17:51.686Z,888.75
2017-09-10T10:18:51.803Z,933.75
2017-09-10T10:19:51.782Z,945.00
2017-09-10T10:20:51.837Z,978.75
2017-09-10T10:21:51.889Z,1023.75
2017-09-10T10:22:51.930Z,1141.88
2017-09-10T10:23:52.039Z,1226.25
2017-09-10T10:24:52.026Z,1265.63
2017-09-10T10:25:52.090Z,1260.00
2017-09-10T10:26:52.129Z,1209.38
2017-09-10T10:27:52.172Z,1181.25
2017-09-10T10:28:52.283Z,1181.25
2017-09-10T10:29:52.268Z,1170.00
2017-09-10T10:30:52.320Z,1226.25
2017-09-10T10:31:52.369Z,1321.88
2017-09-10T10:32:52.423Z,1355.63
2017-09-10T10:33:52.528Z,1496.25
2017-09-10T10:34:52.510Z,1456.88
2017-09-10T10:35:52.561Z,1586.25
2017-09-10T10:36:52.612Z,1389.38
2017-09-10T10:37:52.659Z,1580.63
2017-09-10T10:38:52.792Z,1614.38
2017-09-10T10:39:52.760Z,1563.75
2017-09-10T10:40:52.808Z,1530.00
2017-09-10T10:41:52.860Z,1704.38
2017-09-10T10:42:52.909Z,1777.50
2017-09-10T10:43:53.023Z,2148.75
2017-09-10T10:44:53.071Z,2289.38
2017-09-10T10:45:53.055Z,2272.50
2017-09-10T10:46:53.105Z,2306.25
2017-09-10T10:47:53.157Z,2413.13
2017-09-10T10:48:53.204Z,2475.00
2017-09-10T10:49:53.319Z,2671.88
2017-09-10T10:50:53.305Z,2795.63
2017-09-10T10:51:53.354Z,2936.25
2017-09-10T10:52:53.405Z,3015.00
2017-09-10T10:53:53.458Z,3161.25
2017-09-10T10:54:53.569Z,3206.25
2017-09-10T10:55:53.568Z,3307.50
2017-09-10T10:56:53.610Z,3228.75
2017-09-10T10:57:53.662Z,3459.38
2017-09-10T10:58:53.711Z,3645.00
2017-09-10T10:59:53.824Z,3667.50
2017-09-10T11:00:53.818Z,3526.88
2017-09-10T11:01:53.866Z,3515.63
2017-09-10T11:02:53.913Z,3718.13
2017-09-10T11:03:53.965Z,3875.63
2017-09-10T11:04:54.083Z,3560.63
2017-09-10T11:05:54.077Z,2947.50
2017-09-10T11:06:54.120Z,3639.38
2017-09-10T11:07:54.172Z,2604.38
2017-09-10T11:08:54.223Z,3088.13
2017-09-10T11:09:54.357Z,3082.50
2017-09-10T11:10:54.324Z,3678.75
2017-09-10T11:11:54.376Z,4201.88
2017-09-10T11:12:54.433Z,4263.75
2017-09-10T11:13:54.481Z,4353.75
2017-09-10T11:14:54.612Z,3712.50
2017-09-10T11:15:54.593Z,3105.00
2017-09-10T11:16:54.637Z,4370.63
2017-09-10T11:17:54.688Z,3712.50
2017-09-10T11:18:54.738Z,3960.00
2017-09-10T11:19:54.875Z,3650.63
2017-09-10T11:20:54.844Z,3442.50
2017-09-10T11:21:54.902Z,3076.88
2017-09-10T11:22:54.950Z,2115.00
2017-09-10T11:23:54.999Z,3369.38
2017-09-10T11:24:55.118Z,4252.50
2017-09-10T11:25:55.174Z,3785.63
2017-09-10T11:26:55.157Z,3026.25
2017-09-10T11:27:55.208Z,1777.50
2017-09-10T11:28:55.263Z,2311.88
2017-09-10T11:29:55.315Z,2227.50
2017-09-10T11:30:55.435Z,2536.88
2017-09-10T11:31:55.421Z,2373.75
2017-09-10T11:32:55.473Z,2503.13
2017-09-10T11:33:55.532Z,2553.75
2017-09-10T11:34:55.579Z,2238.75
2017-09-10T11:35:55.718Z,2131.88
2017-09-10T11:36:55.685Z,1783.13
2017-09-10T11:37:55.738Z,1620.00
2017-09-10T11:38:55.788Z,1608.75
2017-09-10T11:39:55.853Z,1603.13
2017-09-10T11:40:55.980Z,1636.88
2017-09-10T11:41:55.949Z,1681.88
2017-09-10T11:42:55.998Z,1670.63
2017-09-10T11:43:56.053Z,1670.63
2017-09-10T11:44:56.104Z,1642.50
2017-09-10T11:45:56.225Z,1659.38
2017-09-10T11:46:56.272Z,1648.13
2017-09-10T11:47:56.263Z,1710.00
2017-09-10T11:48:56.314Z,1670.63
2017-09-10T11:49:56.369Z,1710.00
2017-09-10T11:50:56.418Z,2036.25
2017-09-10T11:51:56.540Z,1648.13
2017-09-10T11:52:56.523Z,1805.63
2017-09-10T11:53:56.575Z,1558.13
2017-09-10T11:54:56.627Z,1541.25
2017-09-10T11:55:56.681Z,1698.75
2017-09-10T11:56:56.794Z,1625.63
2017-09-10T11:57:56.785Z,1681.88
2017-09-10T11:58:56.835Z,1541.25
2017-09-10T11:59:56.886Z,1535.63
2017-09-10T12:00:56.940Z,1580.63
2017-09-10T12:01:57.058Z,1575.00
2017-09-10T12:02:57.047Z,1681.88
2017-09-10T12:03:57.095Z,1659.38
2017-09-10T12:04:57.147Z,1642.50
2017-09-10T12:05:57.202Z,1614.38
2017-09-10T12:06:57.317Z,2126.25
2017-09-10T12:07:57.303Z,2250.00
2017-09-10T12:08:57.355Z,1805.63
2017-09-10T12:09:57.409Z,3330.00
2017-09-10T12:10:57.458Z,1693.13
2017-09-10T12:11:57.595Z,1552.50
2017-09-10T12:12:57.568Z,1513.13
2017-09-10T12:13:57.616Z,2272.50
2017-09-10T12:14:57.667Z,1434.38
2017-09-10T12:15:57.719Z,2199.38
2017-09-10T12:16:57.843Z,1974.38
2017-09-10T12:17:57.894Z,1940.63
2017-09-10T12:18:57.882Z,1771.88
2017-09-10T12:19:57.931Z,1715.63
2017-09-10T12:20:57.980Z,1749.38
2017-09-10T12:21:58.035Z,1513.13
2017-09-10T12:22:58.153Z,1530.00
2017-09-10T12:23:58.138Z,1524.38
2017-09-10T12:24:58.191Z,1777.50
2017-09-10T12:25:58.244Z,2086.88
2017-09-10T12:26:58.297Z,2401.88
2017-09-10T12:27:58.417Z,2176.88
2017-09-10T12:28:58.402Z,1800.00
2017-09-10T12:29:58.454Z,1366.88
2017-09-10T12:30:58.506Z,1226.25
2017-09-10T12:31:58.557Z,1203.75
2017-09-10T12:32:58.694Z,1175.63
2017-09-10T12:33:58.663Z,1147.50
2017-09-10T12:34:58.718Z,1125.00
2017-09-10T12:35:58.769Z,1153.13
2017-09-10T12:36:58.821Z,1215.00
2017-09-10T12:37:58.958Z,1603.13
2017-09-10T12:38:58.925Z,1653.75
2017-09-10T12:39:58.982Z,1591.88
2017-09-10T12:40:59.034Z,1569.38
2017-09-10T12:41:59.086Z,1518.75
2017-09-10T12:42:59.218Z,1456.88
2017-09-10T12:43:59.189Z,1479.38
2017-09-10T12:44:59.244Z,1440.00
2017-09-10T12:45:59.299Z,1440.00
2017-09-10T12:46:59.347Z,1496.25